sensor_id;sensor_type;location;lat;lon;timestamp;P1;durP1;ratioP1;P2;durP2;ratioP2
40807;SDS011;26523;52.504;13.498;2022-11-20T00:01:47;11.25;;;4.55;;
40807;SDS011;26523;52.504;13.498;2022-11-20T00:04:13;13.68;;;5.07;;
40807;SDS011;26523;52.504;13.498;2022-11-20T00:06:39;10.98;;;4.80;;
40807;SDS011;26523;52.504;13.498;2022-11-20T00:09:04;16.00;;;5.38;;
40807;SDS011;26523;52.504;13.498;2022-11-20T00:11:31;9.35;;;4.72;;
40807;SDS011;26523;52.504;13.498;2022-11-20T00:13:57;13.45;;;4.90;;
40807;SDS011;26523;52.504;13.498;2022-11-20T00:16:26;8.68;;;3.97;;
40807;SDS011;26523;52.504;13.498;2022-11-20T00:18:53;8.98;;;4.07;;
40807;SDS011;26523;52.504;13.498;2022-11-20T00:21:20;12.90;;;4.88;;
40807;SDS011;26523;52.504;13.498;2022-11-20T00:23:49;14.35;;;4.85;;
40807;SDS011;26523;52.504;13.498;2022-11-20T00:26:16;7.40;;;3.85;;
40807;SDS011;26523;52.504;13.498;2022-11-20T00:28:43;10.55;;;4.57;;
40807;SDS011;26523;52.504;13.498;2022-11-20T00:31:14;12.57;;;4.70;;
40807;SDS011;26523;52.504;13.498;2022-11-20T00:33:40;7.53;;;3.75;;
40807;SDS011;26523;52.504;13.498;2022-11-20T00:36:08;10.75;;;5.80;;
40807;SDS011;26523;52.504;13.498;2022-11-20T00:38:35;14.77;;;4.85;;
40807;SDS011;26523;52.504;13.498;2022-11-20T00:41:04;9.95;;;3.90;;
40807;SDS011;26523;52.504;13.498;2022-11-20T00:43:32;11.20;;;4.78;;
40807;SDS011;26523;52.504;13.498;2022-11-20T00:46:05;14.40;;;4.97;;
40807;SDS011;26523;52.504;13.498;2022-11-20T00:48:33;7.97;;;4.03;;
40807;SDS011;26523;52.504;13.498;2022-11-20T00:50:59;12.20;;;4.57;;
40807;SDS011;26523;52.504;13.498;2022-11-20T00:53:25;11.60;;;4.63;;
40807;SDS011;26523;52.504;13.498;2022-11-20T00:58:37;13.45;;;4.32;;
40807;SDS011;26523;52.504;13.498;2022-11-20T01:01:08;13.57;;;4.95;;
40807;SDS011;26523;52.504;13.498;2022-11-20T01:03:36;12.27;;;5.75;;
40807;SDS011;26523;52.504;13.498;2022-11-20T01:06:05;8.70;;;4.72;;
40807;SDS011;26523;52.504;13.498;2022-11-20T01:08:32;7.78;;;3.70;;
40807;SDS011;26523;52.504;13.498;2022-11-20T01:11:03;11.80;;;5.72;;
40807;SDS011;26523;52.504;13.498;2022-11-20T01:13:30;10.77;;;4.13;;
40807;SDS011;26523;52.504;13.498;2022-11-20T01:16:12;9.95;;;5.55;;
40807;SDS011;26523;52.504;13.498;2022-11-20T01:18:40;13.57;;;4.63;;
40807;SDS011;26523;52.504;13.498;2022-11-20T01:21:08;11.63;;;5.25;;
40807;SDS011;26523;52.504;13.498;2022-11-20T01:23:37;12.88;;;4.85;;
40807;SDS011;26523;52.504;13.498;2022-11-20T01:26:05;7.55;;;4.20;;
40807;SDS011;26523;52.504;13.498;2022-11-20T01:28:33;11.50;;;4.63;;
40807;SDS011;26523;52.504;13.498;2022-11-20T01:30:59;10.70;;;4.15;;
40807;SDS011;26523;52.504;13.498;2022-11-20T01:33:25;12.18;;;5.03;;
40807;SDS011;26523;52.504;13.498;2022-11-20T01:35:52;11.90;;;4.78;;
40807;SDS011;26523;52.504;13.498;2022-11-20T01:38:17;11.65;;;4.15;;
40807;SDS011;26523;52.504;13.498;2022-11-20T01:40:45;13.80;;;4.63;;
40807;SDS011;26523;52.504;13.498;2022-11-20T01:43:19;15.60;;;5.57;;
40807;SDS011;26523;52.504;13.498;2022-11-20T01:45:59;16.77;;;5.28;;
40807;SDS011;26523;52.504;13.498;2022-11-20T01:48:26;10.30;;;4.18;;
40807;SDS011;26523;52.504;13.498;2022-11-20T01:50:57;9.98;;;4.47;;
40807;SDS011;26523;52.504;13.498;2022-11-20T01:53:25;14.48;;;5.68;;
40807;SDS011;26523;52.504;13.498;2022-11-20T01:55:56;10.25;;;4.22;;
40807;SDS011;26523;52.504;13.498;2022-11-20T01:58:25;9.68;;;4.65;;
40807;SDS011;26523;52.504;13.498;2022-11-20T02:00:55;8.95;;;4.47;;
40807;SDS011;26523;52.504;13.498;2022-11-20T02:03:21;18.75;;;4.90;;
40807;SDS011;26523;52.504;13.498;2022-11-20T02:08:32;8.98;;;4.80;;
40807;SDS011;26523;52.504;13.498;2022-11-20T02:10:58;10.90;;;4.97;;
40807;SDS011;26523;52.504;13.498;2022-11-20T02:13:24;12.55;;;5.07;;
40807;SDS011;26523;52.504;13.498;2022-11-20T02:16:15;11.82;;;5.22;;
40807;SDS011;26523;52.504;13.498;2022-11-20T02:18:44;13.85;;;5.40;;
40807;SDS011;26523;52.504;13.498;2022-11-20T02:26:38;11.30;;;5.38;;
40807;SDS011;26523;52.504;13.498;2022-11-20T02:29:37;13.20;;;5.18;;
40807;SDS011;26523;52.504;13.498;2022-11-20T02:32:34;14.98;;;5.20;;
40807;SDS011;26523;52.504;13.498;2022-11-20T02:35:07;10.10;;;5.25;;
40807;SDS011;26523;52.504;13.498;2022-11-20T02:37:43;12.50;;;5.63;;
40807;SDS011;26523;52.504;13.498;2022-11-20T02:40:10;10.18;;;4.38;;
40807;SDS011;26523;52.504;13.498;2022-11-20T02:42:36;11.68;;;4.90;;
40807;SDS011;26523;52.504;13.498;2022-11-20T02:45:03;9.40;;;4.95;;
40807;SDS011;26523;52.504;13.498;2022-11-20T02:47:30;10.18;;;3.72;;
40807;SDS011;26523;52.504;13.498;2022-11-20T02:49:56;14.20;;;5.38;;
40807;SDS011;26523;52.504;13.498;2022-11-20T02:52:21;13.32;;;5.25;;
40807;SDS011;26523;52.504;13.498;2022-11-20T02:54:47;14.65;;;5.38;;
40807;SDS011;26523;52.504;13.498;2022-11-20T02:57:13;24.98;;;5.45;;
40807;SDS011;26523;52.504;13.498;2022-11-20T02:59:38;11.57;;;4.88;;
40807;SDS011;26523;52.504;13.498;2022-11-20T03:02:04;10.98;;;4.80;;
40807;SDS011;26523;52.504;13.498;2022-11-20T03:04:30;9.45;;;3.88;;
40807;SDS011;26523;52.504;13.498;2022-11-20T03:06:55;11.27;;;4.63;;
40807;SDS011;26523;52.504;13.498;2022-11-20T03:09:21;13.63;;;4.95;;
40807;SDS011;26523;52.504;13.498;2022-11-20T03:11:47;12.10;;;4.72;;
40807;SDS011;26523;52.504;13.498;2022-11-20T03:14:13;11.13;;;5.55;;
40807;SDS011;26523;52.504;13.498;2022-11-20T03:16:39;12.23;;;5.45;;
40807;SDS011;26523;52.504;13.498;2022-11-20T03:19:05;13.40;;;6.07;;
40807;SDS011;26523;52.504;13.498;2022-11-20T03:21:32;10.40;;;5.25;;
40807;SDS011;26523;52.504;13.498;2022-11-20T03:23:58;10.18;;;4.97;;
40807;SDS011;26523;52.504;13.498;2022-11-20T03:26:24;9.88;;;4.45;;
40807;SDS011;26523;52.504;13.498;2022-11-20T03:28:54;11.38;;;4.22;;
40807;SDS011;26523;52.504;13.498;2022-11-20T03:31:22;11.45;;;4.22;;
40807;SDS011;26523;52.504;13.498;2022-11-20T03:33:53;13.40;;;5.13;;
40807;SDS011;26523;52.504;13.498;2022-11-20T03:36:19;13.13;;;4.65;;
40807;SDS011;26523;52.504;13.498;2022-11-20T03:38:46;15.93;;;5.63;;
40807;SDS011;26523;52.504;13.498;2022-11-20T03:41:19;16.52;;;5.50;;
40807;SDS011;26523;52.504;13.498;2022-11-20T03:43:56;8.98;;;5.32;;
40807;SDS011;26523;52.504;13.498;2022-11-20T03:46:23;10.10;;;4.82;;
40807;SDS011;26523;52.504;13.498;2022-11-20T03:48:49;13.45;;;5.10;;
40807;SDS011;26523;52.504;13.498;2022-11-20T03:51:19;12.77;;;4.53;;
40807;SDS011;26523;52.504;13.498;2022-11-20T03:53:46;9.55;;;5.40;;
40807;SDS011;26523;52.504;13.498;2022-11-20T03:56:14;13.85;;;5.28;;
40807;SDS011;26523;52.504;13.498;2022-11-20T03:58:41;10.40;;;4.72;;
40807;SDS011;26523;52.504;13.498;2022-11-20T04:01:08;10.38;;;5.18;;
40807;SDS011;26523;52.504;13.498;2022-11-20T04:03:39;9.07;;;4.43;;
40807;SDS011;26523;52.504;13.498;2022-11-20T04:06:07;19.83;;;5.93;;
40807;SDS011;26523;52.504;13.498;2022-11-20T04:08:34;12.52;;;6.03;;
40807;SDS011;26523;52.504;13.498;2022-11-20T04:13:38;11.50;;;5.55;;
40807;SDS011;26523;52.504;13.498;2022-11-20T04:16:07;13.90;;;5.30;;
40807;SDS011;26523;52.504;13.498;2022-11-20T04:18:34;14.85;;;5.38;;
40807;SDS011;26523;52.504;13.498;2022-11-20T04:21:01;13.75;;;5.32;;
40807;SDS011;26523;52.504;13.498;2022-11-20T04:23:28;11.30;;;5.82;;
40807;SDS011;26523;52.504;13.498;2022-11-20T04:25:53;23.13;;;5.40;;
40807;SDS011;26523;52.504;13.498;2022-11-20T04:28:19;13.60;;;4.60;;
40807;SDS011;26523;52.504;13.498;2022-11-20T04:30:45;14.15;;;5.90;;
40807;SDS011;26523;52.504;13.498;2022-11-20T04:33:11;12.30;;;5.30;;
40807;SDS011;26523;52.504;13.498;2022-11-20T04:35:37;18.90;;;5.88;;
40807;SDS011;26523;52.504;13.498;2022-11-20T04:38:03;20.77;;;6.00;;
40807;SDS011;26523;52.504;13.498;2022-11-20T04:40:29;14.68;;;4.95;;
40807;SDS011;26523;52.504;13.498;2022-11-20T04:42:55;17.35;;;5.07;;
40807;SDS011;26523;52.504;13.498;2022-11-20T04:45:22;12.25;;;5.13;;
40807;SDS011;26523;52.504;13.498;2022-11-20T04:47:48;10.48;;;4.47;;
40807;SDS011;26523;52.504;13.498;2022-11-20T04:50:14;14.82;;;5.30;;
40807;SDS011;26523;52.504;13.498;2022-11-20T04:52:40;11.02;;;5.07;;
40807;SDS011;26523;52.504;13.498;2022-11-20T04:55:06;12.38;;;4.97;;
40807;SDS011;26523;52.504;13.498;2022-11-20T04:57:32;14.90;;;4.65;;
40807;SDS011;26523;52.504;13.498;2022-11-20T04:59:57;11.23;;;4.88;;
40807;SDS011;26523;52.504;13.498;2022-11-20T05:02:23;16.77;;;6.25;;
40807;SDS011;26523;52.504;13.498;2022-11-20T05:04:48;16.48;;;5.32;;
40807;SDS011;26523;52.504;13.498;2022-11-20T05:07:14;11.07;;;5.05;;
40807;SDS011;26523;52.504;13.498;2022-11-20T05:09:40;11.55;;;5.25;;
40807;SDS011;26523;52.504;13.498;2022-11-20T05:12:07;13.15;;;5.72;;
40807;SDS011;26523;52.504;13.498;2022-11-20T05:14:33;13.63;;;5.68;;
40807;SDS011;26523;52.504;13.498;2022-11-20T05:16:59;14.55;;;5.45;;
40807;SDS011;26523;52.504;13.498;2022-11-20T05:19:24;13.88;;;5.32;;
40807;SDS011;26523;52.504;13.498;2022-11-20T05:21:50;13.35;;;5.68;;
40807;SDS011;26523;52.504;13.498;2022-11-20T05:24:16;10.23;;;5.32;;
40807;SDS011;26523;52.504;13.498;2022-11-20T05:26:41;14.10;;;5.78;;
40807;SDS011;26523;52.504;13.498;2022-11-20T05:29:09;12.57;;;5.70;;
40807;SDS011;26523;52.504;13.498;2022-11-20T05:31:35;12.60;;;5.43;;
40807;SDS011;26523;52.504;13.498;2022-11-20T05:34:02;12.13;;;5.13;;
40807;SDS011;26523;52.504;13.498;2022-11-20T05:36:27;12.10;;;5.00;;
40807;SDS011;26523;52.504;13.498;2022-11-20T05:38:54;13.93;;;4.80;;
40807;SDS011;26523;52.504;13.498;2022-11-20T05:41:20;16.00;;;6.53;;
40807;SDS011;26523;52.504;13.498;2022-11-20T05:43:46;13.80;;;6.25;;
40807;SDS011;26523;52.504;13.498;2022-11-20T05:46:14;11.80;;;4.95;;
40807;SDS011;26523;52.504;13.498;2022-11-20T05:48:41;13.88;;;5.35;;
40807;SDS011;26523;52.504;13.498;2022-11-20T05:51:09;17.25;;;5.47;;
40807;SDS011;26523;52.504;13.498;2022-11-20T05:53:36;15.80;;;5.22;;
40807;SDS011;26523;52.504;13.498;2022-11-20T05:56:03;15.55;;;5.18;;
40807;SDS011;26523;52.504;13.498;2022-11-20T05:58:30;15.38;;;6.28;;
40807;SDS011;26523;52.504;13.498;2022-11-20T06:01:07;14.05;;;5.70;;
40807;SDS011;26523;52.504;13.498;2022-11-20T06:03:38;11.57;;;5.50;;
40807;SDS011;26523;52.504;13.498;2022-11-20T06:06:05;14.40;;;6.28;;
40807;SDS011;26523;52.504;13.498;2022-11-20T06:08:31;11.27;;;5.00;;
40807;SDS011;26523;52.504;13.498;2022-11-20T06:10:57;11.55;;;4.68;;
40807;SDS011;26523;52.504;13.498;2022-11-20T06:13:23;15.25;;;5.40;;
40807;SDS011;26523;52.504;13.498;2022-11-20T06:15:52;16.00;;;6.85;;
40807;SDS011;26523;52.504;13.498;2022-11-20T06:18:18;13.13;;;6.18;;
40807;SDS011;26523;52.504;13.498;2022-11-20T06:20:45;13.85;;;5.30;;
40807;SDS011;26523;52.504;13.498;2022-11-20T06:23:11;13.98;;;5.40;;
40807;SDS011;26523;52.504;13.498;2022-11-20T06:25:38;10.48;;;5.10;;
40807;SDS011;26523;52.504;13.498;2022-11-20T06:28:04;14.07;;;5.65;;
40807;SDS011;26523;52.504;13.498;2022-11-20T06:30:30;15.75;;;5.00;;
40807;SDS011;26523;52.504;13.498;2022-11-20T06:32:56;18.27;;;6.80;;
40807;SDS011;26523;52.504;13.498;2022-11-20T06:35:22;17.00;;;5.95;;
40807;SDS011;26523;52.504;13.498;2022-11-20T06:37:47;14.57;;;6.03;;
40807;SDS011;26523;52.504;13.498;2022-11-20T06:40:13;12.05;;;6.28;;
40807;SDS011;26523;52.504;13.498;2022-11-20T06:42:39;12.80;;;5.68;;
40807;SDS011;26523;52.504;13.498;2022-11-20T06:45:04;16.25;;;5.78;;
40807;SDS011;26523;52.504;13.498;2022-11-20T06:47:30;13.13;;;5.80;;
40807;SDS011;26523;52.504;13.498;2022-11-20T06:49:56;12.15;;;5.28;;
40807;SDS011;26523;52.504;13.498;2022-11-20T06:52:21;13.63;;;5.25;;
40807;SDS011;26523;52.504;13.498;2022-11-20T06:54:47;12.27;;;5.65;;
40807;SDS011;26523;52.504;13.498;2022-11-20T06:57:13;13.48;;;5.57;;
40807;SDS011;26523;52.504;13.498;2022-11-20T06:59:38;12.93;;;5.95;;
40807;SDS011;26523;52.504;13.498;2022-11-20T07:02:04;13.07;;;5.38;;
40807;SDS011;26523;52.504;13.498;2022-11-20T07:04:30;15.02;;;5.20;;
40807;SDS011;26523;52.504;13.498;2022-11-20T07:06:55;16.90;;;4.57;;
40807;SDS011;26523;52.504;13.498;2022-11-20T07:09:21;13.70;;;4.93;;
40807;SDS011;26523;52.504;13.498;2022-11-20T07:11:47;16.33;;;6.28;;
40807;SDS011;26523;52.504;13.498;2022-11-20T07:14:12;17.00;;;6.38;;
40807;SDS011;26523;52.504;13.498;2022-11-20T07:16:38;15.07;;;6.07;;
40807;SDS011;26523;52.504;13.498;2022-11-20T07:19:03;11.95;;;5.47;;
40807;SDS011;26523;52.504;13.498;2022-11-20T07:21:29;22.00;;;6.15;;
40807;SDS011;26523;52.504;13.498;2022-11-20T07:23:55;11.27;;;4.75;;
40807;SDS011;26523;52.504;13.498;2022-11-20T07:26:20;16.35;;;5.85;;
40807;SDS011;26523;52.504;13.498;2022-11-20T07:28:46;15.75;;;6.05;;
40807;SDS011;26523;52.504;13.498;2022-11-20T07:31:12;14.55;;;4.97;;
40807;SDS011;26523;52.504;13.498;2022-11-20T07:33:38;18.08;;;5.53;;
40807;SDS011;26523;52.504;13.498;2022-11-20T07:36:03;15.40;;;4.88;;
40807;SDS011;26523;52.504;13.498;2022-11-20T07:38:29;14.57;;;5.65;;
40807;SDS011;26523;52.504;13.498;2022-11-20T07:40:56;11.10;;;6.28;;
40807;SDS011;26523;52.504;13.498;2022-11-20T07:43:22;9.13;;;5.28;;
40807;SDS011;26523;52.504;13.498;2022-11-20T07:45:49;14.88;;;6.30;;
40807;SDS011;26523;52.504;13.498;2022-11-20T07:48:15;12.93;;;5.00;;
40807;SDS011;26523;52.504;13.498;2022-11-20T07:50:40;14.93;;;6.22;;
40807;SDS011;26523;52.504;13.498;2022-11-20T07:53:06;18.13;;;6.75;;
40807;SDS011;26523;52.504;13.498;2022-11-20T07:55:32;13.18;;;5.88;;
40807;SDS011;26523;52.504;13.498;2022-11-20T07:57:58;15.85;;;6.55;;
40807;SDS011;26523;52.504;13.498;2022-11-20T08:00:24;14.25;;;4.95;;
40807;SDS011;26523;52.504;13.498;2022-11-20T08:02:51;12.98;;;5.32;;
40807;SDS011;26523;52.504;13.498;2022-11-20T08:05:16;12.48;;;5.20;;
40807;SDS011;26523;52.504;13.498;2022-11-20T08:07:42;12.18;;;5.43;;
40807;SDS011;26523;52.504;13.498;2022-11-20T08:10:10;13.38;;;6.15;;
40807;SDS011;26523;52.504;13.498;2022-11-20T08:12:44;9.65;;;4.68;;
40807;SDS011;26523;52.504;13.498;2022-11-20T08:15:36;13.35;;;5.35;;
40807;SDS011;26523;52.504;13.498;2022-11-20T08:18:05;13.80;;;5.95;;
40807;SDS011;26523;52.504;13.498;2022-11-20T08:20:36;13.07;;;5.22;;
40807;SDS011;26523;52.504;13.498;2022-11-20T08:23:03;14.75;;;5.45;;
40807;SDS011;26523;52.504;13.498;2022-11-20T08:25:30;11.27;;;5.55;;
40807;SDS011;26523;52.504;13.498;2022-11-20T08:28:01;13.82;;;5.50;;
40807;SDS011;26523;52.504;13.498;2022-11-20T08:30:28;12.98;;;6.03;;
40807;SDS011;26523;52.504;13.498;2022-11-20T08:32:54;20.40;;;6.97;;
40807;SDS011;26523;52.504;13.498;2022-11-20T08:35:25;16.48;;;6.00;;
40807;SDS011;26523;52.504;13.498;2022-11-20T08:37:51;10.95;;;5.95;;
40807;SDS011;26523;52.504;13.498;2022-11-20T08:40:17;16.67;;;6.05;;
40807;SDS011;26523;52.504;13.498;2022-11-20T08:42:49;18.50;;;6.50;;
40807;SDS011;26523;52.504;13.498;2022-11-20T08:45:16;11.02;;;4.93;;
40807;SDS011;26523;52.504;13.498;2022-11-20T08:47:43;20.00;;;5.55;;
40807;SDS011;26523;52.504;13.498;2022-11-20T08:50:09;14.02;;;6.53;;
40807;SDS011;26523;52.504;13.498;2022-11-20T08:52:36;12.48;;;5.80;;
40807;SDS011;26523;52.504;13.498;2022-11-20T08:55:03;14.63;;;5.97;;
40807;SDS011;26523;52.504;13.498;2022-11-20T08:57:31;20.67;;;6.25;;
40807;SDS011;26523;52.504;13.498;2022-11-20T09:00:00;12.60;;;5.60;;
40807;SDS011;26523;52.504;13.498;2022-11-20T09:02:26;13.77;;;5.80;;
40807;SDS011;26523;52.504;13.498;2022-11-20T09:04:52;19.42;;;5.45;;
40807;SDS011;26523;52.504;13.498;2022-11-20T09:07:18;13.07;;;5.85;;
40807;SDS011;26523;52.504;13.498;2022-11-20T09:09:44;13.55;;;5.85;;
40807;SDS011;26523;52.504;13.498;2022-11-20T09:12:10;19.33;;;5.95;;
40807;SDS011;26523;52.504;13.498;2022-11-20T09:14:36;18.58;;;6.70;;
40807;SDS011;26523;52.504;13.498;2022-11-20T09:17:01;12.00;;;5.22;;
40807;SDS011;26523;52.504;13.498;2022-11-20T09:19:27;11.35;;;5.45;;
40807;SDS011;26523;52.504;13.498;2022-11-20T09:21:53;17.77;;;6.88;;
40807;SDS011;26523;52.504;13.498;2022-11-20T09:24:18;12.32;;;4.55;;
40807;SDS011;26523;52.504;13.498;2022-11-20T09:26:46;16.02;;;6.03;;
40807;SDS011;26523;52.504;13.498;2022-11-20T09:29:12;12.77;;;5.28;;
40807;SDS011;26523;52.504;13.498;2022-11-20T09:31:38;14.32;;;5.78;;
40807;SDS011;26523;52.504;13.498;2022-11-20T09:34:03;13.55;;;5.22;;
40807;SDS011;26523;52.504;13.498;2022-11-20T09:36:29;15.82;;;6.35;;
40807;SDS011;26523;52.504;13.498;2022-11-20T09:38:55;13.85;;;6.95;;
40807;SDS011;26523;52.504;13.498;2022-11-20T09:41:32;12.00;;;5.43;;
40807;SDS011;26523;52.504;13.498;2022-11-20T09:47:06;16.65;;;6.80;;
40807;SDS011;26523;52.504;13.498;2022-11-20T09:49:45;13.23;;;6.05;;
40807;SDS011;26523;52.504;13.498;2022-11-20T09:55:06;12.52;;;5.15;;
40807;SDS011;26523;52.504;13.498;2022-11-20T09:57:36;18.92;;;5.63;;
40807;SDS011;26523;52.504;13.498;2022-11-20T10:00:05;11.60;;;6.15;;
40807;SDS011;26523;52.504;13.498;2022-11-20T10:02:43;15.25;;;5.55;;
40807;SDS011;26523;52.504;13.498;2022-11-20T10:10:41;16.20;;;6.07;;
40807;SDS011;26523;52.504;13.498;2022-11-20T10:16:09;9.27;;;5.03;;
40807;SDS011;26523;52.504;13.498;2022-11-20T10:18:48;17.63;;;5.80;;
40807;SDS011;26523;52.504;13.498;2022-11-20T10:29:11;11.73;;;5.78;;
40807;SDS011;26523;52.504;13.498;2022-11-20T10:31:41;12.65;;;5.75;;
40807;SDS011;26523;52.504;13.498;2022-11-20T10:34:31;23.13;;;6.80;;
40807;SDS011;26523;52.504;13.498;2022-11-20T10:37:18;12.45;;;5.88;;
40807;SDS011;26523;52.504;13.498;2022-11-20T10:39:54;16.05;;;6.43;;
40807;SDS011;26523;52.504;13.498;2022-11-20T10:42:37;11.70;;;5.75;;
40807;SDS011;26523;52.504;13.498;2022-11-20T10:47:52;21.10;;;6.85;;
40807;SDS011;26523;52.504;13.498;2022-11-20T10:50:21;18.17;;;7.63;;
40807;SDS011;26523;52.504;13.498;2022-11-20T10:55:48;17.67;;;5.78;;
40807;SDS011;26523;52.504;13.498;2022-11-20T10:58:37;14.43;;;5.68;;
40807;SDS011;26523;52.504;13.498;2022-11-20T11:01:13;18.73;;;6.72;;
40807;SDS011;26523;52.504;13.498;2022-11-20T11:03:43;11.48;;;4.78;;
40807;SDS011;26523;52.504;13.498;2022-11-20T11:08:36;15.68;;;6.03;;
40807;SDS011;26523;52.504;13.498;2022-11-20T11:11:25;16.25;;;6.32;;
40807;SDS011;26523;52.504;13.498;2022-11-20T11:14:06;13.95;;;6.05;;
40807;SDS011;26523;52.504;13.498;2022-11-20T11:16:40;17.27;;;7.28;;
40807;SDS011;26523;52.504;13.498;2022-11-20T11:19:18;15.10;;;5.78;;
40807;SDS011;26523;52.504;13.498;2022-11-20T11:21:45;17.48;;;6.43;;
40807;SDS011;26523;52.504;13.498;2022-11-20T11:24:23;13.90;;;5.75;;
40807;SDS011;26523;52.504;13.498;2022-11-20T11:26:57;18.23;;;7.05;;
40807;SDS011;26523;52.504;13.498;2022-11-20T11:29:28;15.73;;;5.93;;
40807;SDS011;26523;52.504;13.498;2022-11-20T11:34:31;17.05;;;5.38;;
40807;SDS011;26523;52.504;13.498;2022-11-20T11:36:57;16.58;;;6.18;;
40807;SDS011;26523;52.504;13.498;2022-11-20T11:39:24;13.90;;;5.97;;
40807;SDS011;26523;52.504;13.498;2022-11-20T11:41:52;13.63;;;5.80;;
40807;SDS011;26523;52.504;13.498;2022-11-20T11:44:21;11.43;;;5.03;;
40807;SDS011;26523;52.504;13.498;2022-11-20T11:50:00;10.80;;;5.65;;
40807;SDS011;26523;52.504;13.498;2022-11-20T11:52:42;11.60;;;5.00;;
40807;SDS011;26523;52.504;13.498;2022-11-20T11:58:47;11.45;;;4.88;;
40807;SDS011;26523;52.504;13.498;2022-11-20T12:07:24;11.10;;;4.57;;
40807;SDS011;26523;52.504;13.498;2022-11-20T12:16:02;12.38;;;4.63;;
40807;SDS011;26523;52.504;13.498;2022-11-20T12:18:29;12.55;;;4.45;;
40807;SDS011;26523;52.504;13.498;2022-11-20T12:26:05;9.82;;;5.10;;
40807;SDS011;26523;52.504;13.498;2022-11-20T12:34:18;10.82;;;4.88;;
40807;SDS011;26523;52.504;13.498;2022-11-20T12:37:04;15.20;;;7.03;;
40807;SDS011;26523;52.504;13.498;2022-11-20T12:39:43;17.30;;;6.40;;
40807;SDS011;26523;52.504;13.498;2022-11-20T12:42:23;13.80;;;4.80;;
40807;SDS011;26523;52.504;13.498;2022-11-20T12:48:16;16.05;;;4.93;;
40807;SDS011;26523;52.504;13.498;2022-11-20T13:10:06;11.10;;;4.68;;
40807;SDS011;26523;52.504;13.498;2022-11-20T13:12:47;11.90;;;5.25;;
40807;SDS011;26523;52.504;13.498;2022-11-20T13:18:13;5.40;;;2.88;;
40807;SDS011;26523;52.504;13.498;2022-11-20T13:20:43;8.65;;;3.63;;
40807;SDS011;26523;52.504;13.498;2022-11-20T13:23:09;7.97;;;3.25;;
40807;SDS011;26523;52.504;13.498;2022-11-20T13:25:36;8.18;;;3.70;;
40807;SDS011;26523;52.504;13.498;2022-11-20T13:28:04;8.70;;;3.80;;
40807;SDS011;26523;52.504;13.498;2022-11-20T13:30:47;8.60;;;3.17;;
40807;SDS011;26523;52.504;13.498;2022-11-20T13:33:31;5.80;;;2.67;;
40807;SDS011;26523;52.504;13.498;2022-11-20T13:38:47;10.98;;;3.75;;
40807;SDS011;26523;52.504;13.498;2022-11-20T13:41:34;7.43;;;3.47;;
40807;SDS011;26523;52.504;13.498;2022-11-20T13:46:38;6.63;;;3.50;;
40807;SDS011;26523;52.504;13.498;2022-11-20T13:51:46;8.85;;;3.50;;
40807;SDS011;26523;52.504;13.498;2022-11-20T13:54:19;7.72;;;3.38;;
40807;SDS011;26523;52.504;13.498;2022-11-20T13:56:51;7.88;;;3.55;;
40807;SDS011;26523;52.504;13.498;2022-11-20T14:02:13;9.02;;;3.22;;
40807;SDS011;26523;52.504;13.498;2022-11-20T14:04:48;7.47;;;2.97;;
40807;SDS011;26523;52.504;13.498;2022-11-20T14:07:16;8.27;;;3.47;;
40807;SDS011;26523;52.504;13.498;2022-11-20T14:09:54;7.43;;;3.35;;
40807;SDS011;26523;52.504;13.498;2022-11-20T14:12:23;5.85;;;2.83;;
40807;SDS011;26523;52.504;13.498;2022-11-20T14:14:58;8.18;;;2.90;;
40807;SDS011;26523;52.504;13.498;2022-11-20T14:20:06;9.77;;;2.80;;
40807;SDS011;26523;52.504;13.498;2022-11-20T14:22:38;6.57;;;3.30;;
40807;SDS011;26523;52.504;13.498;2022-11-20T14:25:18;7.32;;;2.60;;
40807;SDS011;26523;52.504;13.498;2022-11-20T14:27:50;8.63;;;2.15;;
40807;SDS011;26523;52.504;13.498;2022-11-20T14:30:19;12.57;;;3.72;;
40807;SDS011;26523;52.504;13.498;2022-11-20T14:32:50;8.88;;;3.78;;
40807;SDS011;26523;52.504;13.498;2022-11-20T14:37:47;7.80;;;2.97;;
40807;SDS011;26523;52.504;13.498;2022-11-20T14:42:49;12.15;;;3.75;;
40807;SDS011;26523;52.504;13.498;2022-11-20T14:45:15;10.68;;;4.07;;
40807;SDS011;26523;52.504;13.498;2022-11-20T14:47:42;9.02;;;3.42;;
40807;SDS011;26523;52.504;13.498;2022-11-20T14:50:12;13.35;;;3.50;;
40807;SDS011;26523;52.504;13.498;2022-11-20T14:52:50;6.28;;;3.10;;
40807;SDS011;26523;52.504;13.498;2022-11-20T14:57:56;8.68;;;3.25;;
40807;SDS011;26523;52.504;13.498;2022-11-20T15:00:24;8.23;;;4.10;;
40807;SDS011;26523;52.504;13.498;2022-11-20T15:02:50;9.75;;;4.05;;
40807;SDS011;26523;52.504;13.498;2022-11-20T15:05:18;8.95;;;4.15;;
40807;SDS011;26523;52.504;13.498;2022-11-20T15:07:50;8.07;;;3.80;;
40807;SDS011;26523;52.504;13.498;2022-11-20T15:10:29;14.30;;;3.45;;
40807;SDS011;26523;52.504;13.498;2022-11-20T15:12:55;7.63;;;3.35;;
40807;SDS011;26523;52.504;13.498;2022-11-20T15:18:13;15.32;;;4.28;;
40807;SDS011;26523;52.504;13.498;2022-11-20T15:20:52;6.88;;;3.88;;
40807;SDS011;26523;52.504;13.498;2022-11-20T15:23:25;11.30;;;4.33;;
40807;SDS011;26523;52.504;13.498;2022-11-20T15:25:52;7.80;;;4.10;;
40807;SDS011;26523;52.504;13.498;2022-11-20T15:28:22;9.40;;;3.72;;
40807;SDS011;26523;52.504;13.498;2022-11-20T15:30:51;10.77;;;4.30;;
40807;SDS011;26523;52.504;13.498;2022-11-20T15:33:17;8.75;;;4.07;;
40807;SDS011;26523;52.504;13.498;2022-11-20T15:35:47;10.68;;;3.72;;
40807;SDS011;26523;52.504;13.498;2022-11-20T15:38:12;6.60;;;3.03;;
40807;SDS011;26523;52.504;13.498;2022-11-20T15:40:38;9.52;;;4.22;;
40807;SDS011;26523;52.504;13.498;2022-11-20T15:43:04;10.10;;;3.85;;
40807;SDS011;26523;52.504;13.498;2022-11-20T15:45:35;7.47;;;4.43;;
40807;SDS011;26523;52.504;13.498;2022-11-20T15:48:02;15.07;;;4.55;;
40807;SDS011;26523;52.504;13.498;2022-11-20T15:50:36;10.73;;;3.45;;
40807;SDS011;26523;52.504;13.498;2022-11-20T15:53:07;9.35;;;3.17;;
40807;SDS011;26523;52.504;13.498;2022-11-20T15:55:35;8.07;;;4.22;;
40807;SDS011;26523;52.504;13.498;2022-11-20T15:58:00;9.23;;;3.78;;
40807;SDS011;26523;52.504;13.498;2022-11-20T16:00:26;9.77;;;3.63;;
40807;SDS011;26523;52.504;13.498;2022-11-20T16:02:52;7.82;;;3.13;;
40807;SDS011;26523;52.504;13.498;2022-11-20T16:05:17;19.08;;;6.82;;
40807;SDS011;26523;52.504;13.498;2022-11-20T16:07:43;12.02;;;4.55;;
40807;SDS011;26523;52.504;13.498;2022-11-20T16:10:09;11.40;;;4.63;;
40807;SDS011;26523;52.504;13.498;2022-11-20T16:12:35;11.48;;;4.80;;
40807;SDS011;26523;52.504;13.498;2022-11-20T16:15:19;10.13;;;4.38;;
40807;SDS011;26523;52.504;13.498;2022-11-20T16:18:03;11.60;;;3.93;;
40807;SDS011;26523;52.504;13.498;2022-11-20T16:20:29;13.27;;;4.22;;
40807;SDS011;26523;52.504;13.498;2022-11-20T16:22:54;15.35;;;4.38;;
40807;SDS011;26523;52.504;13.498;2022-11-20T16:25:20;9.95;;;3.85;;
40807;SDS011;26523;52.504;13.498;2022-11-20T16:27:46;9.68;;;4.40;;
40807;SDS011;26523;52.504;13.498;2022-11-20T16:30:12;8.52;;;3.55;;
40807;SDS011;26523;52.504;13.498;2022-11-20T16:32:38;8.70;;;3.90;;
40807;SDS011;26523;52.504;13.498;2022-11-20T16:35:03;12.77;;;4.03;;
40807;SDS011;26523;52.504;13.498;2022-11-20T16:37:29;14.63;;;5.25;;
40807;SDS011;26523;52.504;13.498;2022-11-20T16:39:55;7.38;;;3.78;;